KORE

Orange Municipal Airport

Orange, Massachusetts, USA
METAR KORE 191752Z AUTO 06006KT 10SM SCT039 OVC045 23/16 A2996 RMK AO2 SLP143 T02280161 10233 20178 50001 $
Observed Flight Rules
Sep-19 @ 17:52 UTC (56 minutes ago) Visual Flight Rules
Wind Visibility Clouds
60° at 6 knots 10 miles
  • Scattered at 3,900' AGL
  • Overcast at 4,500' AGL
Temperatures Readings
Current 23°C / 73°F
Dewpoint 16°C / 61°F
Humidity 65%
Altimeter 29.96" Hg
Pressure 1014.3 hPa
Elevation 164
METAR KORE 191752Z AUTO 06006KT 10SM SCT039 OVC045 23/16 A2996 RMK AO2 SLP143 T02280161 10233 20178 50001 $
Observed Flight Rules
Sep-19 @ 17:52 UTC
(56 minutes ago)
VFR
Wind Visibility
60° at 6 knots 10 miles
Clouds
  • Scattered at 3,900' AGL
  • Overcast at 4,500' AGL
Temperature Dewpoint
23°C / 73°F 16°C / 61°F
Humidity Altimeter Pressure
65% 29.96" Hg 1014.3 hPa